Airfield :
LOGIN :

Register | Disclaimer

   EN    FR    IT 

 










Legend :    VFR   Marginal VFR   IFR   Intensive IFR   Very Intensive IFR
Visi :
Ceiling :
>= 8 km
>= 3000ft
5 to 8 km
1000 to 3000 ft
1500m to 5 km
500 to 1000 ft
800 to 1500m
200 to 500 ft
< 800m
< 200 ft
Symbols :   Thunderstorms  Fog  Heavy snow  Heavy precipitations  Wind > 20 kt
SIGMETs :     Misc.  Thunderstorms  Icing  Turbulence  Mountain Waves  Volcanic Ashes







- Airport Elevation : 659 ft
- IATA code : LGG


EBLG - Liège

CURRENT METAR :
  • 190850Z VRB02KT 2700 BR BKN009 14/12 Q1006 NOSIG

EXPIRED METARs :
  • 190820Z 34004KT 310V020 2700 BR BKN007 15/13 Q1006 NOSIG
  • 190750Z 33005KT 300V360 2600 BR SCT006 14/13 Q1006 NOSIG
  • 190720Z 32003KT 290V350 2100 BR SCT004 14/12 Q1006 NOSIG
  • 190650Z 32004KT 280V360 1900 BR SCT004 14/13 Q1006 NOSIG
  • 190620Z 31004KT 280V340 1500 BR SCT002 13/12 Q1006 NOSIG

TAF AMD TAF EBLG
Valid from the 19 at 06:00 until the 20 at 12:00 UTC


190903Z 1906/2012 34005KT 8000 FEW030TCU SCT045
PROB40
TEMPO 1906/1911 2000 SHRA BR BKN008
TEMPO 1911/1921 4000 SHRA
PROB40
TEMPO 1913/1919 VRB15G25KT 2000 TSRAGS BKN006 BKN025CB
BECMG 2000/2002 2000 BR BKN003
PROB40 2002/2008 0200 FG BKN001
BECMG 2010/2012 6000 NSW BKN008
No reported NOTAMs for that airfield.



MET'MAP, your aeronautical weather chart ! - Copyright ORBIFLY December 2007 - Disclaimer

ORBIFLY MET'MAP TEAM :

Programming & Development : Alexandra Zaïnal
Concept & Development : Baudouin d'Aumeries
Co-Development & Prog : Marc-Olivier Méhu
Technical & hardware support : Manuel Goepfert

Contact : metmap@orbifly.com




SOURCES & CREDITS :

   NOAA